Terminal Aerodrome Forecast
Issued by NWS Charleston, WV

Current Version | Previous Version | Graphics & Text | Print | Product List | Glossary On
Versions: 1 2 3 4 5 6 7 8 9 10 11 12 13 14 15 16 17 18 19 20 21 22 23 24 25 26
000
FTUS41 KRLX 020528
TAFBKW
TAF
KBKW 020528Z 0206/0306 21005KT P6SM SCT060 OVC100
     FM020700 20006KT 3SM BR BKN005
     FM021200 23006KT 5SM BR BKN008
     FM021400 24008KT P6SM BKN010
     FM021900 25010G16KT P6SM -SHRA VCTS BKN035CB
     FM022200 29006KT 5SM SHRA VCTS OVC025CB=

USA.gov is the U.S. government's official web portal to all federal, state and local government web resources and services.